Terminal Aerodrome Forecast
Issued by NWS Missoula, MT

Home | Current Version | Previous Version | Text Only | Print | Product List | Glossary On
Versions: 1 2 3 4 5 6 7 8 9 10 11 12 13 14 15 16 17
000
FTUS45 KMSO 271720
TAFMSO
TAF
KMSO 271720Z 2718/2818 28006KT P6SM FEW050
     FM281000 27010KT P6SM VCSH OVC050
     FM281400 26015G25KT P6SM -SHRA SCT030 OVC050=

USA.gov is the U.S. government's official web portal to all federal, state and local government web resources and services.